sensor_id;sensor_type;location;lat;lon;timestamp;temperature;humidity
15556;DHT22;7879;48.660;9.116;2023-06-22T00:01:19;20.90;99.90
15556;DHT22;7879;48.660;9.116;2023-06-22T00:03:47;20.90;99.90
15556;DHT22;7879;48.660;9.116;2023-06-22T00:06:14;20.90;99.90
15556;DHT22;7879;48.660;9.116;2023-06-22T00:08:41;20.90;99.90
15556;DHT22;7879;48.660;9.116;2023-06-22T00:11:08;20.90;99.90
15556;DHT22;7879;48.660;9.116;2023-06-22T00:13:35;20.90;99.90
15556;DHT22;7879;48.660;9.116;2023-06-22T00:16:01;20.80;99.90
15556;DHT22;7879;48.660;9.116;2023-06-22T00:18:28;20.80;99.90
15556;DHT22;7879;48.660;9.116;2023-06-22T00:20:57;20.90;99.90
15556;DHT22;7879;48.660;9.116;2023-06-22T00:23:25;20.80;99.90
15556;DHT22;7879;48.660;9.116;2023-06-22T00:25:52;20.80;99.90
15556;DHT22;7879;48.660;9.116;2023-06-22T00:28:19;20.60;99.90
15556;DHT22;7879;48.660;9.116;2023-06-22T00:30:48;20.50;99.90
15556;DHT22;7879;48.660;9.116;2023-06-22T00:33:15;20.40;99.90
15556;DHT22;7879;48.660;9.116;2023-06-22T00:35:43;20.40;99.90
15556;DHT22;7879;48.660;9.116;2023-06-22T00:38:10;20.50;99.90
15556;DHT22;7879;48.660;9.116;2023-06-22T00:40:37;20.50;99.90
15556;DHT22;7879;48.660;9.116;2023-06-22T00:43:05;20.40;99.90
15556;DHT22;7879;48.660;9.116;2023-06-22T00:45:32;20.40;99.90
15556;DHT22;7879;48.660;9.116;2023-06-22T00:47:59;20.30;99.90
15556;DHT22;7879;48.660;9.116;2023-06-22T00:50:29;20.30;99.90
15556;DHT22;7879;48.660;9.116;2023-06-22T00:53:03;20.30;99.90
15556;DHT22;7879;48.660;9.116;2023-06-22T00:55:36;20.20;99.90
15556;DHT22;7879;48.660;9.116;2023-06-22T00:58:07;20.20;99.90
15556;DHT22;7879;48.660;9.116;2023-06-22T01:00:39;20.20;99.90
15556;DHT22;7879;48.660;9.116;2023-06-22T01:03:07;20.20;99.90
15556;DHT22;7879;48.660;9.116;2023-06-22T01:05:38;20.10;99.90
15556;DHT22;7879;48.660;9.116;2023-06-22T01:09:11;20.10;99.90
15556;DHT22;7879;48.660;9.116;2023-06-22T01:11:18;20.10;99.90
15556;DHT22;7879;48.660;9.116;2023-06-22T01:16:31;19.90;99.90
15556;DHT22;7879;48.660;9.116;2023-06-22T01:19:01;19.90;99.90
15556;DHT22;7879;48.660;9.116;2023-06-22T01:21:32;19.80;99.90
15556;DHT22;7879;48.660;9.116;2023-06-22T01:24:15;19.70;99.90
15556;DHT22;7879;48.660;9.116;2023-06-22T01:26:57;19.70;99.90
15556;DHT22;7879;48.660;9.116;2023-06-22T01:29:27;19.70;99.90
15556;DHT22;7879;48.660;9.116;2023-06-22T01:31:56;19.70;99.90
15556;DHT22;7879;48.660;9.116;2023-06-22T01:34:24;19.60;99.90
15556;DHT22;7879;48.660;9.116;2023-06-22T01:36:51;19.60;99.90
15556;DHT22;7879;48.660;9.116;2023-06-22T01:39:19;19.60;99.90
15556;DHT22;7879;48.660;9.116;2023-06-22T01:41:48;19.60;99.90
15556;DHT22;7879;48.660;9.116;2023-06-22T01:44:15;19.50;99.90
15556;DHT22;7879;48.660;9.116;2023-06-22T01:46:42;19.50;99.90
15556;DHT22;7879;48.660;9.116;2023-06-22T01:49:10;19.60;99.90
15556;DHT22;7879;48.660;9.116;2023-06-22T01:51:37;19.60;99.90
15556;DHT22;7879;48.660;9.116;2023-06-22T01:54:06;19.60;99.90
15556;DHT22;7879;48.660;9.116;2023-06-22T01:56:33;19.50;99.90
15556;DHT22;7879;48.660;9.116;2023-06-22T01:59:25;19.40;99.90
15556;DHT22;7879;48.660;9.116;2023-06-22T02:02:13;19.40;99.90
15556;DHT22;7879;48.660;9.116;2023-06-22T02:04:48;19.40;99.90
15556;DHT22;7879;48.660;9.116;2023-06-22T02:07:17;19.40;99.90
15556;DHT22;7879;48.660;9.116;2023-06-22T02:09:47;19.40;99.90
15556;DHT22;7879;48.660;9.116;2023-06-22T02:12:18;19.30;99.90
15556;DHT22;7879;48.660;9.116;2023-06-22T02:14:48;19.30;99.90
15556;DHT22;7879;48.660;9.116;2023-06-22T02:17:16;19.30;99.90
15556;DHT22;7879;48.660;9.116;2023-06-22T02:19:43;19.30;99.90
15556;DHT22;7879;48.660;9.116;2023-06-22T02:22:10;19.20;99.90
15556;DHT22;7879;48.660;9.116;2023-06-22T02:24:37;19.20;99.90
15556;DHT22;7879;48.660;9.116;2023-06-22T02:27:05;19.10;99.90
15556;DHT22;7879;48.660;9.116;2023-06-22T02:29:33;19.20;99.90
15556;DHT22;7879;48.660;9.116;2023-06-22T02:32:00;19.10;99.90
15556;DHT22;7879;48.660;9.116;2023-06-22T02:34:27;19.10;99.90
15556;DHT22;7879;48.660;9.116;2023-06-22T02:36:54;19.20;99.90
15556;DHT22;7879;48.660;9.116;2023-06-22T02:39:21;19.10;99.90
15556;DHT22;7879;48.660;9.116;2023-06-22T02:41:54;19.10;99.90
15556;DHT22;7879;48.660;9.116;2023-06-22T02:44:21;19.10;99.90
15556;DHT22;7879;48.660;9.116;2023-06-22T02:46:48;19.10;99.90
15556;DHT22;7879;48.660;9.116;2023-06-22T02:49:15;19.10;99.90
15556;DHT22;7879;48.660;9.116;2023-06-22T02:51:45;19.20;99.90
15556;DHT22;7879;48.660;9.116;2023-06-22T02:54:13;19.20;99.90
15556;DHT22;7879;48.660;9.116;2023-06-22T02:56:40;19.20;99.90
15556;DHT22;7879;48.660;9.116;2023-06-22T02:59:10;19.20;99.90
15556;DHT22;7879;48.660;9.116;2023-06-22T03:01:37;19.20;99.90
15556;DHT22;7879;48.660;9.116;2023-06-22T03:04:08;19.20;99.90
15556;DHT22;7879;48.660;9.116;2023-06-22T03:06:35;19.30;99.90
15556;DHT22;7879;48.660;9.116;2023-06-22T03:09:03;19.30;99.90
15556;DHT22;7879;48.660;9.116;2023-06-22T03:11:32;19.30;99.90
15556;DHT22;7879;48.660;9.116;2023-06-22T03:14:00;19.30;99.90
15556;DHT22;7879;48.660;9.116;2023-06-22T03:16:27;19.30;99.90
15556;DHT22;7879;48.660;9.116;2023-06-22T03:18:54;19.30;99.90
15556;DHT22;7879;48.660;9.116;2023-06-22T03:21:23;19.30;99.90
15556;DHT22;7879;48.660;9.116;2023-06-22T03:23:49;19.20;99.90
15556;DHT22;7879;48.660;9.116;2023-06-22T03:26:17;19.20;99.90
15556;DHT22;7879;48.660;9.116;2023-06-22T03:28:44;19.10;99.90
15556;DHT22;7879;48.660;9.116;2023-06-22T03:31:11;19.10;99.90
15556;DHT22;7879;48.660;9.116;2023-06-22T03:33:38;19.00;99.90
15556;DHT22;7879;48.660;9.116;2023-06-22T03:36:05;19.00;99.90
15556;DHT22;7879;48.660;9.116;2023-06-22T03:38:32;19.00;99.90
15556;DHT22;7879;48.660;9.116;2023-06-22T03:40:59;18.90;99.90
15556;DHT22;7879;48.660;9.116;2023-06-22T03:43:26;18.80;99.90
15556;DHT22;7879;48.660;9.116;2023-06-22T03:45:53;18.80;99.90
15556;DHT22;7879;48.660;9.116;2023-06-22T03:48:20;18.80;99.90
15556;DHT22;7879;48.660;9.116;2023-06-22T03:50:46;18.80;99.90
15556;DHT22;7879;48.660;9.116;2023-06-22T03:53:13;18.80;99.90
15556;DHT22;7879;48.660;9.116;2023-06-22T03:55:51;18.80;99.90
15556;DHT22;7879;48.660;9.116;2023-06-22T03:58:19;18.80;99.90
15556;DHT22;7879;48.660;9.116;2023-06-22T04:00:47;18.70;99.90
15556;DHT22;7879;48.660;9.116;2023-06-22T04:03:15;18.70;99.90
15556;DHT22;7879;48.660;9.116;2023-06-22T04:05:42;18.70;99.90
15556;DHT22;7879;48.660;9.116;2023-06-22T04:08:09;18.60;99.90
15556;DHT22;7879;48.660;9.116;2023-06-22T04:10:35;18.70;99.90
15556;DHT22;7879;48.660;9.116;2023-06-22T04:13:02;18.60;99.90
15556;DHT22;7879;48.660;9.116;2023-06-22T04:15:29;18.70;99.90
15556;DHT22;7879;48.660;9.116;2023-06-22T04:17:56;18.70;99.90
15556;DHT22;7879;48.660;9.116;2023-06-22T04:20:24;18.70;99.90
15556;DHT22;7879;48.660;9.116;2023-06-22T04:22:55;18.70;99.90
15556;DHT22;7879;48.660;9.116;2023-06-22T04:25:23;18.60;99.90
15556;DHT22;7879;48.660;9.116;2023-06-22T04:27:49;18.60;99.90
15556;DHT22;7879;48.660;9.116;2023-06-22T04:30:17;18.70;99.90
15556;DHT22;7879;48.660;9.116;2023-06-22T04:32:44;18.70;99.90
15556;DHT22;7879;48.660;9.116;2023-06-22T04:35:11;18.70;99.90
15556;DHT22;7879;48.660;9.116;2023-06-22T04:37:38;18.70;99.90
15556;DHT22;7879;48.660;9.116;2023-06-22T04:40:06;18.70;99.90
15556;DHT22;7879;48.660;9.116;2023-06-22T04:42:34;18.70;99.90
15556;DHT22;7879;48.660;9.116;2023-06-22T04:45:03;18.70;99.90
15556;DHT22;7879;48.660;9.116;2023-06-22T04:47:30;18.70;99.90
15556;DHT22;7879;48.660;9.116;2023-06-22T04:49:56;18.90;99.90
15556;DHT22;7879;48.660;9.116;2023-06-22T04:52:23;18.90;99.90
15556;DHT22;7879;48.660;9.116;2023-06-22T04:54:51;19.10;99.90
15556;DHT22;7879;48.660;9.116;2023-06-22T04:57:22;19.10;99.90
15556;DHT22;7879;48.660;9.116;2023-06-22T04:59:59;19.20;99.90
15556;DHT22;7879;48.660;9.116;2023-06-22T05:02:39;19.10;99.90
15556;DHT22;7879;48.660;9.116;2023-06-22T05:05:06;19.10;99.90
15556;DHT22;7879;48.660;9.116;2023-06-22T05:07:34;19.10;99.90
15556;DHT22;7879;48.660;9.116;2023-06-22T05:10:02;19.10;99.90
15556;DHT22;7879;48.660;9.116;2023-06-22T05:12:30;19.10;99.90
15556;DHT22;7879;48.660;9.116;2023-06-22T05:14:57;19.10;99.90
15556;DHT22;7879;48.660;9.116;2023-06-22T05:17:24;19.30;99.90
15556;DHT22;7879;48.660;9.116;2023-06-22T05:19:51;19.40;99.90
15556;DHT22;7879;48.660;9.116;2023-06-22T05:22:18;19.50;99.90
15556;DHT22;7879;48.660;9.116;2023-06-22T05:24:45;19.60;99.90
15556;DHT22;7879;48.660;9.116;2023-06-22T05:27:30;19.70;99.90
15556;DHT22;7879;48.660;9.116;2023-06-22T05:29:56;19.80;99.90
15556;DHT22;7879;48.660;9.116;2023-06-22T05:32:23;19.80;99.90
15556;DHT22;7879;48.660;9.116;2023-06-22T05:34:52;19.90;99.90
15556;DHT22;7879;48.660;9.116;2023-06-22T05:37:19;20.00;99.90
15556;DHT22;7879;48.660;9.116;2023-06-22T05:39:46;20.10;99.90
15556;DHT22;7879;48.660;9.116;2023-06-22T05:42:12;20.10;99.90
15556;DHT22;7879;48.660;9.116;2023-06-22T05:44:39;20.20;99.90
15556;DHT22;7879;48.660;9.116;2023-06-22T05:47:07;20.20;99.90
15556;DHT22;7879;48.660;9.116;2023-06-22T05:49:34;20.20;99.90
15556;DHT22;7879;48.660;9.116;2023-06-22T05:52:00;20.30;99.90
15556;DHT22;7879;48.660;9.116;2023-06-22T05:54:28;20.40;99.90
15556;DHT22;7879;48.660;9.116;2023-06-22T05:56:55;20.40;99.90
15556;DHT22;7879;48.660;9.116;2023-06-22T05:59:22;20.50;99.90
15556;DHT22;7879;48.660;9.116;2023-06-22T06:01:48;20.50;99.90
15556;DHT22;7879;48.660;9.116;2023-06-22T06:04:18;20.60;99.90
15556;DHT22;7879;48.660;9.116;2023-06-22T06:06:45;20.60;99.90
15556;DHT22;7879;48.660;9.116;2023-06-22T06:09:16;20.60;99.90
15556;DHT22;7879;48.660;9.116;2023-06-22T06:11:43;20.60;99.90
15556;DHT22;7879;48.660;9.116;2023-06-22T06:14:09;20.70;99.90
15556;DHT22;7879;48.660;9.116;2023-06-22T06:16:36;20.70;99.90
15556;DHT22;7879;48.660;9.116;2023-06-22T06:19:03;20.70;99.90
15556;DHT22;7879;48.660;9.116;2023-06-22T06:21:30;20.80;99.90
15556;DHT22;7879;48.660;9.116;2023-06-22T06:23:57;20.90;99.90
15556;DHT22;7879;48.660;9.116;2023-06-22T06:26:23;20.90;99.90
15556;DHT22;7879;48.660;9.116;2023-06-22T06:28:56;21.00;99.90
15556;DHT22;7879;48.660;9.116;2023-06-22T06:31:24;21.00;99.90
15556;DHT22;7879;48.660;9.116;2023-06-22T06:33:51;21.10;99.90
15556;DHT22;7879;48.660;9.116;2023-06-22T06:36:18;21.20;99.90
15556;DHT22;7879;48.660;9.116;2023-06-22T06:38:44;21.20;99.90
15556;DHT22;7879;48.660;9.116;2023-06-22T06:41:14;21.30;99.90
15556;DHT22;7879;48.660;9.116;2023-06-22T06:43:42;21.20;99.90
15556;DHT22;7879;48.660;9.116;2023-06-22T06:46:11;21.30;99.90
15556;DHT22;7879;48.660;9.116;2023-06-22T06:48:39;21.40;99.90
15556;DHT22;7879;48.660;9.116;2023-06-22T06:51:06;21.50;99.90
15556;DHT22;7879;48.660;9.116;2023-06-22T06:53:37;21.50;99.90
15556;DHT22;7879;48.660;9.116;2023-06-22T06:56:04;21.60;99.90
15556;DHT22;7879;48.660;9.116;2023-06-22T06:58:32;21.60;99.90
15556;DHT22;7879;48.660;9.116;2023-06-22T07:00:59;21.70;99.90
15556;DHT22;7879;48.660;9.116;2023-06-22T07:03:26;21.70;99.90
15556;DHT22;7879;48.660;9.116;2023-06-22T07:05:52;21.80;99.90
15556;DHT22;7879;48.660;9.116;2023-06-22T07:08:19;21.90;99.90
15556;DHT22;7879;48.660;9.116;2023-06-22T07:10:46;22.00;99.90
15556;DHT22;7879;48.660;9.116;2023-06-22T07:13:13;22.00;99.90
15556;DHT22;7879;48.660;9.116;2023-06-22T07:15:39;22.00;99.90
15556;DHT22;7879;48.660;9.116;2023-06-22T07:18:06;22.10;99.90
15556;DHT22;7879;48.660;9.116;2023-06-22T07:20:33;22.20;99.90
15556;DHT22;7879;48.660;9.116;2023-06-22T07:23:01;22.30;99.90
15556;DHT22;7879;48.660;9.116;2023-06-22T07:25:27;22.40;99.90
15556;DHT22;7879;48.660;9.116;2023-06-22T07:30:25;22.50;99.90
15556;DHT22;7879;48.660;9.116;2023-06-22T07:32:54;22.60;99.90
15556;DHT22;7879;48.660;9.116;2023-06-22T07:35:21;22.70;99.90
15556;DHT22;7879;48.660;9.116;2023-06-22T07:37:47;22.80;99.90
15556;DHT22;7879;48.660;9.116;2023-06-22T07:40:14;22.90;99.90
15556;DHT22;7879;48.660;9.116;2023-06-22T07:42:42;22.90;99.90
15556;DHT22;7879;48.660;9.116;2023-06-22T07:45:10;23.00;99.90
15556;DHT22;7879;48.660;9.116;2023-06-22T07:47:37;23.10;99.90
15556;DHT22;7879;48.660;9.116;2023-06-22T07:50:05;23.10;99.90
15556;DHT22;7879;48.660;9.116;2023-06-22T07:52:32;23.20;99.90
15556;DHT22;7879;48.660;9.116;2023-06-22T07:54:59;23.30;99.90
15556;DHT22;7879;48.660;9.116;2023-06-22T07:57:26;23.40;99.90
15556;DHT22;7879;48.660;9.116;2023-06-22T08:00:00;23.40;99.90
15556;DHT22;7879;48.660;9.116;2023-06-22T08:02:26;23.50;99.90
15556;DHT22;7879;48.660;9.116;2023-06-22T08:04:53;23.50;99.90
15556;DHT22;7879;48.660;9.116;2023-06-22T08:07:36;23.60;99.90
15556;DHT22;7879;48.660;9.116;2023-06-22T08:10:10;23.60;99.90
15556;DHT22;7879;48.660;9.116;2023-06-22T08:12:38;23.70;99.90
15556;DHT22;7879;48.660;9.116;2023-06-22T08:15:05;23.70;99.90
15556;DHT22;7879;48.660;9.116;2023-06-22T08:17:33;23.80;99.90
15556;DHT22;7879;48.660;9.116;2023-06-22T08:20:00;23.80;99.90
15556;DHT22;7879;48.660;9.116;2023-06-22T08:22:27;23.80;99.90
15556;DHT22;7879;48.660;9.116;2023-06-22T08:24:54;23.80;99.90
15556;DHT22;7879;48.660;9.116;2023-06-22T08:27:20;23.90;99.90
15556;DHT22;7879;48.660;9.116;2023-06-22T08:29:50;24.10;99.90
15556;DHT22;7879;48.660;9.116;2023-06-22T08:32:18;24.20;99.90
15556;DHT22;7879;48.660;9.116;2023-06-22T08:34:45;24.30;99.90
15556;DHT22;7879;48.660;9.116;2023-06-22T08:37:11;24.40;99.90
15556;DHT22;7879;48.660;9.116;2023-06-22T08:39:38;24.40;99.90
15556;DHT22;7879;48.660;9.116;2023-06-22T08:42:06;24.50;99.90
15556;DHT22;7879;48.660;9.116;2023-06-22T08:44:32;24.50;99.90
15556;DHT22;7879;48.660;9.116;2023-06-22T08:46:59;24.50;99.90
15556;DHT22;7879;48.660;9.116;2023-06-22T08:49:26;24.50;99.90
15556;DHT22;7879;48.660;9.116;2023-06-22T08:51:53;24.50;99.90
15556;DHT22;7879;48.660;9.116;2023-06-22T08:54:22;24.60;99.90
15556;DHT22;7879;48.660;9.116;2023-06-22T08:56:49;24.70;99.90
15556;DHT22;7879;48.660;9.116;2023-06-22T08:59:16;24.80;99.90
15556;DHT22;7879;48.660;9.116;2023-06-22T09:01:43;24.80;99.90
15556;DHT22;7879;48.660;9.116;2023-06-22T09:04:15;24.80;99.90
15556;DHT22;7879;48.660;9.116;2023-06-22T09:06:42;24.80;99.90
15556;DHT22;7879;48.660;9.116;2023-06-22T09:09:15;24.80;99.90
15556;DHT22;7879;48.660;9.116;2023-06-22T09:11:43;24.90;99.90
15556;DHT22;7879;48.660;9.116;2023-06-22T09:14:10;25.00;99.90
15556;DHT22;7879;48.660;9.116;2023-06-22T09:16:38;25.20;99.90
15556;DHT22;7879;48.660;9.116;2023-06-22T09:19:05;25.40;99.90
15556;DHT22;7879;48.660;9.116;2023-06-22T09:21:32;25.70;99.90
15556;DHT22;7879;48.660;9.116;2023-06-22T09:24:00;25.90;99.90
15556;DHT22;7879;48.660;9.116;2023-06-22T09:26:27;26.00;99.90
15556;DHT22;7879;48.660;9.116;2023-06-22T09:28:54;26.20;99.90
15556;DHT22;7879;48.660;9.116;2023-06-22T09:31:20;26.30;99.90
15556;DHT22;7879;48.660;9.116;2023-06-22T09:33:54;26.50;99.90
15556;DHT22;7879;48.660;9.116;2023-06-22T09:36:21;26.60;99.90
15556;DHT22;7879;48.660;9.116;2023-06-22T09:38:48;26.90;99.90
15556;DHT22;7879;48.660;9.116;2023-06-22T09:41:22;27.00;99.90
15556;DHT22;7879;48.660;9.116;2023-06-22T09:43:49;27.00;99.90
15556;DHT22;7879;48.660;9.116;2023-06-22T09:46:17;27.00;99.90
15556;DHT22;7879;48.660;9.116;2023-06-22T09:48:44;27.00;99.90
15556;DHT22;7879;48.660;9.116;2023-06-22T09:51:11;27.10;99.90
15556;DHT22;7879;48.660;9.116;2023-06-22T09:53:38;27.20;99.90
15556;DHT22;7879;48.660;9.116;2023-06-22T09:56:05;27.30;99.90
15556;DHT22;7879;48.660;9.116;2023-06-22T09:58:32;27.40;99.90
15556;DHT22;7879;48.660;9.116;2023-06-22T10:00:59;27.40;99.90
15556;DHT22;7879;48.660;9.116;2023-06-22T10:03:26;27.50;99.90
15556;DHT22;7879;48.660;9.116;2023-06-22T10:05:53;27.50;99.90
15556;DHT22;7879;48.660;9.116;2023-06-22T10:08:20;27.40;99.90
15556;DHT22;7879;48.660;9.116;2023-06-22T10:10:47;27.40;99.90
15556;DHT22;7879;48.660;9.116;2023-06-22T10:13:14;27.40;99.90
15556;DHT22;7879;48.660;9.116;2023-06-22T10:15:42;27.30;99.90
15556;DHT22;7879;48.660;9.116;2023-06-22T10:18:09;27.40;99.90
15556;DHT22;7879;48.660;9.116;2023-06-22T10:20:36;27.50;99.90
15556;DHT22;7879;48.660;9.116;2023-06-22T10:23:03;27.60;99.90
15556;DHT22;7879;48.660;9.116;2023-06-22T10:25:29;27.70;99.90
15556;DHT22;7879;48.660;9.116;2023-06-22T10:27:57;27.80;99.90
15556;DHT22;7879;48.660;9.116;2023-06-22T10:30:23;27.80;99.90
15556;DHT22;7879;48.660;9.116;2023-06-22T10:32:50;27.90;99.90
15556;DHT22;7879;48.660;9.116;2023-06-22T10:35:17;28.00;99.90
15556;DHT22;7879;48.660;9.116;2023-06-22T10:37:45;28.10;99.90
15556;DHT22;7879;48.660;9.116;2023-06-22T10:40:14;28.20;99.90
15556;DHT22;7879;48.660;9.116;2023-06-22T10:42:42;28.30;99.90
15556;DHT22;7879;48.660;9.116;2023-06-22T10:45:09;28.30;99.90
15556;DHT22;7879;48.660;9.116;2023-06-22T10:47:36;28.40;99.90
15556;DHT22;7879;48.660;9.116;2023-06-22T10:50:04;28.40;99.90
15556;DHT22;7879;48.660;9.116;2023-06-22T10:52:31;28.40;99.90
15556;DHT22;7879;48.660;9.116;2023-06-22T10:54:57;28.40;99.90
15556;DHT22;7879;48.660;9.116;2023-06-22T10:57:24;28.40;99.90
15556;DHT22;7879;48.660;9.116;2023-06-22T10:59:51;28.50;99.90
15556;DHT22;7879;48.660;9.116;2023-06-22T11:02:18;28.50;99.90
15556;DHT22;7879;48.660;9.116;2023-06-22T11:04:45;28.50;99.90
15556;DHT22;7879;48.660;9.116;2023-06-22T11:07:13;28.50;99.90
15556;DHT22;7879;48.660;9.116;2023-06-22T11:09:40;28.40;99.90
15556;DHT22;7879;48.660;9.116;2023-06-22T11:12:06;28.40;99.90
15556;DHT22;7879;48.660;9.116;2023-06-22T11:14:34;28.40;99.90
15556;DHT22;7879;48.660;9.116;2023-06-22T11:17:00;28.50;99.90
15556;DHT22;7879;48.660;9.116;2023-06-22T11:19:27;28.50;99.90
15556;DHT22;7879;48.660;9.116;2023-06-22T11:21:54;28.50;99.90
15556;DHT22;7879;48.660;9.116;2023-06-22T11:24:21;28.50;99.90
15556;DHT22;7879;48.660;9.116;2023-06-22T11:26:48;28.60;99.90
15556;DHT22;7879;48.660;9.116;2023-06-22T11:29:14;28.50;99.90
15556;DHT22;7879;48.660;9.116;2023-06-22T11:32:01;28.50;99.90
15556;DHT22;7879;48.660;9.116;2023-06-22T11:34:28;28.60;99.90
15556;DHT22;7879;48.660;9.116;2023-06-22T11:36:55;28.70;99.90
15556;DHT22;7879;48.660;9.116;2023-06-22T11:39:22;28.90;99.90
15556;DHT22;7879;48.660;9.116;2023-06-22T11:42:05;29.00;99.90
15556;DHT22;7879;48.660;9.116;2023-06-22T11:44:32;29.00;99.90
15556;DHT22;7879;48.660;9.116;2023-06-22T11:46:59;29.10;99.90
15556;DHT22;7879;48.660;9.116;2023-06-22T11:49:27;29.10;99.90
15556;DHT22;7879;48.660;9.116;2023-06-22T11:51:54;29.10;99.90
15556;DHT22;7879;48.660;9.116;2023-06-22T11:54:21;29.00;99.90
15556;DHT22;7879;48.660;9.116;2023-06-22T11:56:48;29.00;99.90
15556;DHT22;7879;48.660;9.116;2023-06-22T11:59:14;29.10;99.90
15556;DHT22;7879;48.660;9.116;2023-06-22T12:01:41;29.00;99.90
15556;DHT22;7879;48.660;9.116;2023-06-22T12:04:08;29.00;99.90
15556;DHT22;7879;48.660;9.116;2023-06-22T12:06:38;29.00;99.90
15556;DHT22;7879;48.660;9.116;2023-06-22T12:09:08;29.00;99.90
15556;DHT22;7879;48.660;9.116;2023-06-22T12:11:35;29.00;99.90
15556;DHT22;7879;48.660;9.116;2023-06-22T12:14:02;29.00;99.90
15556;DHT22;7879;48.660;9.116;2023-06-22T12:16:29;29.00;99.90
15556;DHT22;7879;48.660;9.116;2023-06-22T12:18:56;28.90;99.90
15556;DHT22;7879;48.660;9.116;2023-06-22T12:21:23;28.90;99.90
15556;DHT22;7879;48.660;9.116;2023-06-22T12:23:49;28.90;99.90
15556;DHT22;7879;48.660;9.116;2023-06-22T12:26:16;28.90;99.90
15556;DHT22;7879;48.660;9.116;2023-06-22T12:28:43;28.90;99.90
15556;DHT22;7879;48.660;9.116;2023-06-22T12:31:10;28.90;99.90
15556;DHT22;7879;48.660;9.116;2023-06-22T12:33:37;28.90;99.90
15556;DHT22;7879;48.660;9.116;2023-06-22T12:36:04;28.90;99.90
15556;DHT22;7879;48.660;9.116;2023-06-22T12:38:31;28.80;99.90
15556;DHT22;7879;48.660;9.116;2023-06-22T12:40:58;28.80;99.90
15556;DHT22;7879;48.660;9.116;2023-06-22T12:43:25;28.80;99.90
15556;DHT22;7879;48.660;9.116;2023-06-22T12:45:51;28.80;99.90
15556;DHT22;7879;48.660;9.116;2023-06-22T12:48:21;28.80;99.90
15556;DHT22;7879;48.660;9.116;2023-06-22T12:50:48;28.70;99.90
15556;DHT22;7879;48.660;9.116;2023-06-22T12:53:15;28.70;99.90
15556;DHT22;7879;48.660;9.116;2023-06-22T12:55:42;28.70;99.90
15556;DHT22;7879;48.660;9.116;2023-06-22T12:58:08;28.80;99.90
15556;DHT22;7879;48.660;9.116;2023-06-22T13:00:35;28.80;99.90
15556;DHT22;7879;48.660;9.116;2023-06-22T13:03:02;28.80;99.90
15556;DHT22;7879;48.660;9.116;2023-06-22T13:05:30;28.80;99.90
15556;DHT22;7879;48.660;9.116;2023-06-22T13:07:57;28.70;99.90
15556;DHT22;7879;48.660;9.116;2023-06-22T13:10:24;28.70;99.90
15556;DHT22;7879;48.660;9.116;2023-06-22T13:12:50;28.70;99.90
15556;DHT22;7879;48.660;9.116;2023-06-22T13:15:18;28.80;99.90
15556;DHT22;7879;48.660;9.116;2023-06-22T13:17:45;28.80;99.90
15556;DHT22;7879;48.660;9.116;2023-06-22T13:20:12;28.80;99.90
15556;DHT22;7879;48.660;9.116;2023-06-22T13:22:39;28.90;99.90
15556;DHT22;7879;48.660;9.116;2023-06-22T13:25:10;28.90;99.90
15556;DHT22;7879;48.660;9.116;2023-06-22T13:27:40;28.90;99.90
15556;DHT22;7879;48.660;9.116;2023-06-22T13:30:09;28.90;99.90
15556;DHT22;7879;48.660;9.116;2023-06-22T13:32:53;28.90;99.90
15556;DHT22;7879;48.660;9.116;2023-06-22T13:35:38;29.00;99.90
15556;DHT22;7879;48.660;9.116;2023-06-22T13:38:22;29.00;99.90
15556;DHT22;7879;48.660;9.116;2023-06-22T13:40:49;29.00;99.90
15556;DHT22;7879;48.660;9.116;2023-06-22T13:43:16;29.00;99.90
15556;DHT22;7879;48.660;9.116;2023-06-22T13:45:43;29.00;99.90
15556;DHT22;7879;48.660;9.116;2023-06-22T13:48:10;28.90;99.90
15556;DHT22;7879;48.660;9.116;2023-06-22T13:50:55;29.00;99.90
15556;DHT22;7879;48.660;9.116;2023-06-22T13:53:22;29.00;99.90
15556;DHT22;7879;48.660;9.116;2023-06-22T13:55:49;29.10;99.90
15556;DHT22;7879;48.660;9.116;2023-06-22T13:58:15;29.10;99.90
15556;DHT22;7879;48.660;9.116;2023-06-22T14:00:42;29.20;99.90
15556;DHT22;7879;48.660;9.116;2023-06-22T14:03:09;29.30;99.90
15556;DHT22;7879;48.660;9.116;2023-06-22T14:05:36;29.40;99.90
15556;DHT22;7879;48.660;9.116;2023-06-22T14:08:03;29.40;99.90
15556;DHT22;7879;48.660;9.116;2023-06-22T14:10:46;29.50;99.90
15556;DHT22;7879;48.660;9.116;2023-06-22T14:13:13;29.50;99.90
15556;DHT22;7879;48.660;9.116;2023-06-22T14:15:40;29.60;99.90
15556;DHT22;7879;48.660;9.116;2023-06-22T14:18:06;29.60;99.90
15556;DHT22;7879;48.660;9.116;2023-06-22T14:20:33;29.50;99.90
15556;DHT22;7879;48.660;9.116;2023-06-22T14:23:00;29.60;99.90
15556;DHT22;7879;48.660;9.116;2023-06-22T14:25:27;29.50;99.90
15556;DHT22;7879;48.660;9.116;2023-06-22T14:27:54;29.60;99.90
15556;DHT22;7879;48.660;9.116;2023-06-22T14:30:21;29.60;99.90
15556;DHT22;7879;48.660;9.116;2023-06-22T14:32:47;29.70;99.90
15556;DHT22;7879;48.660;9.116;2023-06-22T14:35:15;29.70;99.90
15556;DHT22;7879;48.660;9.116;2023-06-22T14:37:41;29.90;99.90
15556;DHT22;7879;48.660;9.116;2023-06-22T14:40:09;30.00;99.90
15556;DHT22;7879;48.660;9.116;2023-06-22T14:42:36;30.20;99.90
15556;DHT22;7879;48.660;9.116;2023-06-22T14:45:03;30.30;99.90
15556;DHT22;7879;48.660;9.116;2023-06-22T14:47:30;30.40;99.30
15556;DHT22;7879;48.660;9.116;2023-06-22T14:49:58;30.30;98.40
15556;DHT22;7879;48.660;9.116;2023-06-22T14:52:27;30.20;96.70
15556;DHT22;7879;48.660;9.116;2023-06-22T14:54:55;30.30;96.70
15556;DHT22;7879;48.660;9.116;2023-06-22T14:57:22;30.30;95.90
15556;DHT22;7879;48.660;9.116;2023-06-22T14:59:49;30.20;94.40
15556;DHT22;7879;48.660;9.116;2023-06-22T15:02:16;30.10;93.80
15556;DHT22;7879;48.660;9.116;2023-06-22T15:04:43;30.00;94.10
15556;DHT22;7879;48.660;9.116;2023-06-22T15:07:11;30.00;95.10
15556;DHT22;7879;48.660;9.116;2023-06-22T15:09:38;29.90;93.50
15556;DHT22;7879;48.660;9.116;2023-06-22T15:12:08;29.90;93.40
15556;DHT22;7879;48.660;9.116;2023-06-22T15:14:42;29.90;92.90
15556;DHT22;7879;48.660;9.116;2023-06-22T15:17:09;29.90;94.10
15556;DHT22;7879;48.660;9.116;2023-06-22T15:19:37;30.00;93.80
15556;DHT22;7879;48.660;9.116;2023-06-22T15:22:07;30.00;92.20
15556;DHT22;7879;48.660;9.116;2023-06-22T15:24:34;29.90;91.20
15556;DHT22;7879;48.660;9.116;2023-06-22T15:27:01;29.90;91.30
15556;DHT22;7879;48.660;9.116;2023-06-22T15:29:28;29.90;91.40
15556;DHT22;7879;48.660;9.116;2023-06-22T15:32:01;29.80;91.20
15556;DHT22;7879;48.660;9.116;2023-06-22T15:34:28;29.80;91.70
15556;DHT22;7879;48.660;9.116;2023-06-22T15:36:55;29.80;91.40
15556;DHT22;7879;48.660;9.116;2023-06-22T15:39:22;29.70;91.20
15556;DHT22;7879;48.660;9.116;2023-06-22T15:41:50;29.60;90.20
15556;DHT22;7879;48.660;9.116;2023-06-22T15:44:21;29.60;90.50
15556;DHT22;7879;48.660;9.116;2023-06-22T15:46:48;29.50;90.60
15556;DHT22;7879;48.660;9.116;2023-06-22T15:49:16;29.50;90.10
15556;DHT22;7879;48.660;9.116;2023-06-22T15:51:44;29.60;90.20
15556;DHT22;7879;48.660;9.116;2023-06-22T15:54:11;29.50;90.10
15556;DHT22;7879;48.660;9.116;2023-06-22T15:56:38;29.50;90.90